Njandoma, Russia
Current Conditions -  °F | °C
As of 10:30 AM on Sunday 23 Nov 2014 (Local Time) from ULWC Reporting Station
Overcast Overcast  
Wind Chill: 23°   Ceiling: 300
Heat Index: 28°   Visibility: 4mi
Dew Point: 28°   Wind: 4mph
Humidity: 100%   Direction: 90°E
Pressure: 30.45"   Gusts: NA
Location:  61.67°N, 40.2°E
Report Text: ULWC 230730Z 09002MPS 7000 OVC003 M02/M02 Q1031 NOSIG RMKQBB110 QFE763/1017 SC057
Loading
Personal Weather Stations






























Interactive Weather Map New forecast layout! Learn more

10-Day Weather Forecast

Advertisements
Track Severe Weather on mobile